sensor_id;sensor_type;location;lat;lon;timestamp;temperature;humidity
38604;DHT22;24924;50.054;8.790;2023-09-19T00:03:03;17.40;99.90
38604;DHT22;24924;50.054;8.790;2023-09-19T00:05:34;17.60;99.90
38604;DHT22;24924;50.054;8.790;2023-09-19T00:08:01;17.70;99.90
38604;DHT22;24924;50.054;8.790;2023-09-19T00:10:30;17.50;99.90
38604;DHT22;24924;50.054;8.790;2023-09-19T00:13:02;17.60;99.90
38604;DHT22;24924;50.054;8.790;2023-09-19T00:15:47;17.50;99.90
38604;DHT22;24924;50.054;8.790;2023-09-19T00:18:17;17.10;99.90
38604;DHT22;24924;50.054;8.790;2023-09-19T00:20:46;17.30;99.90
38604;DHT22;24924;50.054;8.790;2023-09-19T00:23:13;17.30;99.90
38604;DHT22;24924;50.054;8.790;2023-09-19T00:28:07;17.50;99.90
38604;DHT22;24924;50.054;8.790;2023-09-19T00:30:34;17.40;99.90
38604;DHT22;24924;50.054;8.790;2023-09-19T00:35:28;17.60;99.90
38604;DHT22;24924;50.054;8.790;2023-09-19T00:37:55;17.50;99.90
38604;DHT22;24924;50.054;8.790;2023-09-19T00:40:21;17.50;99.90
38604;DHT22;24924;50.054;8.790;2023-09-19T00:42:48;17.50;99.90
38604;DHT22;24924;50.054;8.790;2023-09-19T00:45:15;17.60;99.90
38604;DHT22;24924;50.054;8.790;2023-09-19T00:47:44;17.30;99.90
38604;DHT22;24924;50.054;8.790;2023-09-19T00:50:18;17.50;99.90
38604;DHT22;24924;50.054;8.790;2023-09-19T00:52:46;17.70;99.90
38604;DHT22;24924;50.054;8.790;2023-09-19T00:55:14;17.50;99.90
38604;DHT22;24924;50.054;8.790;2023-09-19T00:57:41;17.50;99.90
38604;DHT22;24924;50.054;8.790;2023-09-19T01:00:09;17.50;99.90
38604;DHT22;24924;50.054;8.790;2023-09-19T01:02:44;17.70;99.90
38604;DHT22;24924;50.054;8.790;2023-09-19T01:05:12;17.50;99.90
38604;DHT22;24924;50.054;8.790;2023-09-19T01:07:38;17.30;99.90
38604;DHT22;24924;50.054;8.790;2023-09-19T01:10:09;17.50;99.90
38604;DHT22;24924;50.054;8.790;2023-09-19T01:15:32;17.40;99.90
38604;DHT22;24924;50.054;8.790;2023-09-19T01:20:39;17.50;99.90
38604;DHT22;24924;50.054;8.790;2023-09-19T01:23:12;17.60;99.90
38604;DHT22;24924;50.054;8.790;2023-09-19T01:26:04;17.50;99.90
38604;DHT22;24924;50.054;8.790;2023-09-19T01:31:42;17.50;99.90
38604;DHT22;24924;50.054;8.790;2023-09-19T01:36:37;17.40;99.90
38604;DHT22;24924;50.054;8.790;2023-09-19T01:39:09;17.70;99.90
38604;DHT22;24924;50.054;8.790;2023-09-19T01:42:01;17.50;99.90
38604;DHT22;24924;50.054;8.790;2023-09-19T01:44:57;17.50;99.90
38604;DHT22;24924;50.054;8.790;2023-09-19T01:47:37;17.60;99.90
38604;DHT22;24924;50.054;8.790;2023-09-19T01:52:38;17.30;99.90
38604;DHT22;24924;50.054;8.790;2023-09-19T01:55:09;17.50;99.90
38604;DHT22;24924;50.054;8.790;2023-09-19T01:58:07;17.60;99.90
38604;DHT22;24924;50.054;8.790;2023-09-19T02:00:37;17.60;99.90
38604;DHT22;24924;50.054;8.790;2023-09-19T02:05:31;17.60;99.90
38604;DHT22;24924;50.054;8.790;2023-09-19T02:07:58;17.40;99.90
38604;DHT22;24924;50.054;8.790;2023-09-19T02:10:24;17.50;99.90
38604;DHT22;24924;50.054;8.790;2023-09-19T02:12:50;17.50;99.90
38604;DHT22;24924;50.054;8.790;2023-09-19T02:15:17;17.60;99.90
38604;DHT22;24924;50.054;8.790;2023-09-19T02:17:43;17.40;99.90
38604;DHT22;24924;50.054;8.790;2023-09-19T02:20:11;17.30;99.90
38604;DHT22;24924;50.054;8.790;2023-09-19T02:22:43;17.40;99.90
38604;DHT22;24924;50.054;8.790;2023-09-19T02:25:10;17.30;99.90
38604;DHT22;24924;50.054;8.790;2023-09-19T02:27:36;17.40;99.90
38604;DHT22;24924;50.054;8.790;2023-09-19T02:30:04;17.20;99.90
38604;DHT22;24924;50.054;8.790;2023-09-19T02:32:31;17.20;99.90
38604;DHT22;24924;50.054;8.790;2023-09-19T02:42:22;17.20;99.90
38604;DHT22;24924;50.054;8.790;2023-09-19T02:44:48;17.20;99.90
38604;DHT22;24924;50.054;8.790;2023-09-19T02:47:14;17.20;99.90
38604;DHT22;24924;50.054;8.790;2023-09-19T02:49:40;17.10;99.90
38604;DHT22;24924;50.054;8.790;2023-09-19T02:52:09;17.10;99.90
38604;DHT22;24924;50.054;8.790;2023-09-19T02:54:37;17.10;99.90
38604;DHT22;24924;50.054;8.790;2023-09-19T02:57:03;16.90;99.90
38604;DHT22;24924;50.054;8.790;2023-09-19T03:02:02;17.00;99.90
38604;DHT22;24924;50.054;8.790;2023-09-19T03:06:56;17.10;99.90
38604;DHT22;24924;50.054;8.790;2023-09-19T03:09:26;17.00;99.90
38604;DHT22;24924;50.054;8.790;2023-09-19T03:11:52;17.00;99.90
38604;DHT22;24924;50.054;8.790;2023-09-19T03:14:20;17.20;99.90
38604;DHT22;24924;50.054;8.790;2023-09-19T03:16:47;17.20;99.90
38604;DHT22;24924;50.054;8.790;2023-09-19T03:19:14;16.80;99.90
38604;DHT22;24924;50.054;8.790;2023-09-19T03:24:08;16.80;99.90
38604;DHT22;24924;50.054;8.790;2023-09-19T03:26:34;16.90;99.90
38604;DHT22;24924;50.054;8.790;2023-09-19T03:29:03;16.80;99.90
38604;DHT22;24924;50.054;8.790;2023-09-19T03:36:25;16.80;99.90
38604;DHT22;24924;50.054;8.790;2023-09-19T03:38:53;16.70;99.90
38604;DHT22;24924;50.054;8.790;2023-09-19T03:41:19;16.70;99.90
38604;DHT22;24924;50.054;8.790;2023-09-19T03:46:12;16.70;99.90
38604;DHT22;24924;50.054;8.790;2023-09-19T03:48:41;16.40;99.90
38604;DHT22;24924;50.054;8.790;2023-09-19T03:53:36;16.60;99.90
38604;DHT22;24924;50.054;8.790;2023-09-19T03:56:02;16.90;99.90
38604;DHT22;24924;50.054;8.790;2023-09-19T04:03:26;16.60;99.90
38604;DHT22;24924;50.054;8.790;2023-09-19T04:06:00;16.60;99.90
38604;DHT22;24924;50.054;8.790;2023-09-19T04:08:26;16.70;99.90
38604;DHT22;24924;50.054;8.790;2023-09-19T04:10:52;16.50;99.90
38604;DHT22;24924;50.054;8.790;2023-09-19T04:13:18;16.80;99.90
38604;DHT22;24924;50.054;8.790;2023-09-19T04:15:44;16.30;99.90
38604;DHT22;24924;50.054;8.790;2023-09-19T04:28:00;16.50;99.90
38604;DHT22;24924;50.054;8.790;2023-09-19T04:35:18;16.50;99.90
38604;DHT22;24924;50.054;8.790;2023-09-19T04:37:44;16.40;99.90
38604;DHT22;24924;50.054;8.790;2023-09-19T04:40:10;16.50;99.90
38604;DHT22;24924;50.054;8.790;2023-09-19T04:42:43;16.50;99.90
38604;DHT22;24924;50.054;8.790;2023-09-19T04:45:10;16.50;99.90
38604;DHT22;24924;50.054;8.790;2023-09-19T04:47:36;16.70;99.90
38604;DHT22;24924;50.054;8.790;2023-09-19T04:50:08;16.80;99.90
38604;DHT22;24924;50.054;8.790;2023-09-19T04:52:39;16.80;99.90
38604;DHT22;24924;50.054;8.790;2023-09-19T04:55:09;16.80;99.90
38604;DHT22;24924;50.054;8.790;2023-09-19T04:57:36;16.70;99.90
38604;DHT22;24924;50.054;8.790;2023-09-19T05:00:02;16.60;99.90
38604;DHT22;24924;50.054;8.790;2023-09-19T05:05:00;16.60;99.90
38604;DHT22;24924;50.054;8.790;2023-09-19T05:07:26;16.80;99.90
38604;DHT22;24924;50.054;8.790;2023-09-19T05:09:51;16.50;99.90
38604;DHT22;24924;50.054;8.790;2023-09-19T05:24:30;16.70;99.90
38604;DHT22;24924;50.054;8.790;2023-09-19T05:26:56;16.60;99.90
38604;DHT22;24924;50.054;8.790;2023-09-19T05:29:22;16.50;99.90
38604;DHT22;24924;50.054;8.790;2023-09-19T05:31:48;16.50;99.90
38604;DHT22;24924;50.054;8.790;2023-09-19T05:34:15;16.40;99.90
38604;DHT22;24924;50.054;8.790;2023-09-19T05:41:35;16.60;99.90
38604;DHT22;24924;50.054;8.790;2023-09-19T05:44:05;16.40;99.90
38604;DHT22;24924;50.054;8.790;2023-09-19T06:01:13;16.70;99.90
38604;DHT22;24924;50.054;8.790;2023-09-19T06:03:39;17.00;99.90
38604;DHT22;24924;50.054;8.790;2023-09-19T06:06:05;16.80;99.90
38604;DHT22;24924;50.054;8.790;2023-09-19T06:08:35;16.70;99.90
38604;DHT22;24924;50.054;8.790;2023-09-19T06:13:28;16.70;99.90
38604;DHT22;24924;50.054;8.790;2023-09-19T06:15:55;16.90;99.90
38604;DHT22;24924;50.054;8.790;2023-09-19T06:18:22;16.80;99.90
38604;DHT22;24924;50.054;8.790;2023-09-19T06:25:45;17.10;99.90
38604;DHT22;24924;50.054;8.790;2023-09-19T06:30:38;16.90;99.90
38604;DHT22;24924;50.054;8.790;2023-09-19T06:33:07;17.10;99.90
38604;DHT22;24924;50.054;8.790;2023-09-19T06:35:34;16.90;99.90
38604;DHT22;24924;50.054;8.790;2023-09-19T06:38:02;17.00;99.90
38604;DHT22;24924;50.054;8.790;2023-09-19T06:40:29;16.90;99.90
38604;DHT22;24924;50.054;8.790;2023-09-19T06:42:56;17.20;99.90
38604;DHT22;24924;50.054;8.790;2023-09-19T06:45:23;17.10;99.90
38604;DHT22;24924;50.054;8.790;2023-09-19T06:47:52;17.10;99.90
38604;DHT22;24924;50.054;8.790;2023-09-19T06:50:23;17.10;99.90
38604;DHT22;24924;50.054;8.790;2023-09-19T06:52:50;16.80;99.90
38604;DHT22;24924;50.054;8.790;2023-09-19T07:00:12;16.70;99.90
38604;DHT22;24924;50.054;8.790;2023-09-19T07:02:42;17.10;99.90
38604;DHT22;24924;50.054;8.790;2023-09-19T07:05:07;17.20;99.90
38604;DHT22;24924;50.054;8.790;2023-09-19T07:10:05;17.00;99.90
38604;DHT22;24924;50.054;8.790;2023-09-19T07:12:31;16.80;99.90
38604;DHT22;24924;50.054;8.790;2023-09-19T07:14:58;17.20;99.90
38604;DHT22;24924;50.054;8.790;2023-09-19T07:19:50;17.10;99.90
38604;DHT22;24924;50.054;8.790;2023-09-19T07:22:16;17.50;99.90
38604;DHT22;24924;50.054;8.790;2023-09-19T07:24:42;17.40;99.90
38604;DHT22;24924;50.054;8.790;2023-09-19T07:27:08;17.40;99.90
38604;DHT22;24924;50.054;8.790;2023-09-19T07:32:00;17.40;99.90
38604;DHT22;24924;50.054;8.790;2023-09-19T07:41:44;17.70;99.90
38604;DHT22;24924;50.054;8.790;2023-09-19T07:53:54;17.40;99.90
38604;DHT22;24924;50.054;8.790;2023-09-19T07:56:20;17.50;99.90
38604;DHT22;24924;50.054;8.790;2023-09-19T07:58:46;17.40;99.90
38604;DHT22;24924;50.054;8.790;2023-09-19T08:01:12;17.40;99.90
38604;DHT22;24924;50.054;8.790;2023-09-19T08:03:39;17.50;99.90
38604;DHT22;24924;50.054;8.790;2023-09-19T08:06:10;17.70;99.90
38604;DHT22;24924;50.054;8.790;2023-09-19T08:08:36;17.50;99.90
38604;DHT22;24924;50.054;8.790;2023-09-19T08:11:06;17.70;99.90
38604;DHT22;24924;50.054;8.790;2023-09-19T08:13:41;17.90;99.90
38604;DHT22;24924;50.054;8.790;2023-09-19T08:16:10;17.80;99.90
38604;DHT22;24924;50.054;8.790;2023-09-19T08:18:36;17.60;99.90
38604;DHT22;24924;50.054;8.790;2023-09-19T08:21:05;17.70;99.90
38604;DHT22;24924;50.054;8.790;2023-09-19T08:23:33;17.70;99.90
38604;DHT22;24924;50.054;8.790;2023-09-19T08:28:27;17.70;99.90
38604;DHT22;24924;50.054;8.790;2023-09-19T08:30:55;18.10;99.90
38604;DHT22;24924;50.054;8.790;2023-09-19T08:40:40;18.30;99.90
38604;DHT22;24924;50.054;8.790;2023-09-19T08:43:07;18.20;99.90
38604;DHT22;24924;50.054;8.790;2023-09-19T08:50:51;18.50;99.90
38604;DHT22;24924;50.054;8.790;2023-09-19T08:53:27;18.30;99.90
38604;DHT22;24924;50.054;8.790;2023-09-19T08:58:26;18.50;99.90
38604;DHT22;24924;50.054;8.790;2023-09-19T09:00:56;18.70;99.90
38604;DHT22;24924;50.054;8.790;2023-09-19T09:03:22;18.50;99.90
38604;DHT22;24924;50.054;8.790;2023-09-19T09:05:50;18.70;99.90
38604;DHT22;24924;50.054;8.790;2023-09-19T09:08:17;18.60;99.90
38604;DHT22;24924;50.054;8.790;2023-09-19T09:10:44;18.50;99.90
38604;DHT22;24924;50.054;8.790;2023-09-19T09:13:10;18.50;99.90
38604;DHT22;24924;50.054;8.790;2023-09-19T09:15:40;18.60;99.90
38604;DHT22;24924;50.054;8.790;2023-09-19T09:18:06;18.70;99.90
38604;DHT22;24924;50.054;8.790;2023-09-19T09:20:32;18.80;99.90
38604;DHT22;24924;50.054;8.790;2023-09-19T09:22:58;18.50;99.90
38604;DHT22;24924;50.054;8.790;2023-09-19T09:25:53;18.60;99.90
38604;DHT22;24924;50.054;8.790;2023-09-19T09:28:24;18.70;99.90
38604;DHT22;24924;50.054;8.790;2023-09-19T09:30:50;19.00;99.90
38604;DHT22;24924;50.054;8.790;2023-09-19T09:33:17;19.00;99.90
38604;DHT22;24924;50.054;8.790;2023-09-19T09:35:51;18.70;99.90
38604;DHT22;24924;50.054;8.790;2023-09-19T09:38:23;18.60;99.90
38604;DHT22;24924;50.054;8.790;2023-09-19T09:40:55;18.90;99.90
38604;DHT22;24924;50.054;8.790;2023-09-19T09:43:30;19.00;99.90
38604;DHT22;24924;50.054;8.790;2023-09-19T09:46:10;18.80;99.90
38604;DHT22;24924;50.054;8.790;2023-09-19T09:49:02;19.00;99.90
38604;DHT22;24924;50.054;8.790;2023-09-19T09:52:02;19.20;99.90
38604;DHT22;24924;50.054;8.790;2023-09-19T09:54:34;19.40;99.90
38604;DHT22;24924;50.054;8.790;2023-09-19T09:57:08;19.30;99.90
38604;DHT22;24924;50.054;8.790;2023-09-19T09:59:51;19.30;99.90
38604;DHT22;24924;50.054;8.790;2023-09-19T10:02:30;19.20;99.90
38604;DHT22;24924;50.054;8.790;2023-09-19T10:05:19;19.30;99.90
38604;DHT22;24924;50.054;8.790;2023-09-19T10:07:49;19.00;99.90
38604;DHT22;24924;50.054;8.790;2023-09-19T10:10:33;18.90;99.90
38604;DHT22;24924;50.054;8.790;2023-09-19T10:13:20;19.00;99.90
38604;DHT22;24924;50.054;8.790;2023-09-19T10:15:50;19.20;99.90
38604;DHT22;24924;50.054;8.790;2023-09-19T10:18:24;19.60;99.90
38604;DHT22;24924;50.054;8.790;2023-09-19T10:20:50;19.90;99.90
38604;DHT22;24924;50.054;8.790;2023-09-19T10:23:20;19.60;99.90
38604;DHT22;24924;50.054;8.790;2023-09-19T10:25:50;19.30;99.90
38604;DHT22;24924;50.054;8.790;2023-09-19T10:28:18;19.60;99.90
38604;DHT22;24924;50.054;8.790;2023-09-19T10:30:53;19.70;99.90
38604;DHT22;24924;50.054;8.790;2023-09-19T10:33:24;20.00;99.90
38604;DHT22;24924;50.054;8.790;2023-09-19T10:35:51;19.90;99.90
38604;DHT22;24924;50.054;8.790;2023-09-19T10:38:18;19.80;99.90
38604;DHT22;24924;50.054;8.790;2023-09-19T10:40:49;19.80;99.90
38604;DHT22;24924;50.054;8.790;2023-09-19T10:43:17;20.00;99.90
38604;DHT22;24924;50.054;8.790;2023-09-19T10:45:50;19.90;99.90
38604;DHT22;24924;50.054;8.790;2023-09-19T10:48:19;19.90;99.90
38604;DHT22;24924;50.054;8.790;2023-09-19T10:51:10;20.00;99.90
38604;DHT22;24924;50.054;8.790;2023-09-19T10:54:01;20.00;99.90
38604;DHT22;24924;50.054;8.790;2023-09-19T10:56:30;19.90;99.90
38604;DHT22;24924;50.054;8.790;2023-09-19T10:59:09;20.20;99.90
38604;DHT22;24924;50.054;8.790;2023-09-19T11:01:46;20.40;99.90
38604;DHT22;24924;50.054;8.790;2023-09-19T11:04:23;20.00;99.90
38604;DHT22;24924;50.054;8.790;2023-09-19T11:09:46;19.70;99.90
38604;DHT22;24924;50.054;8.790;2023-09-19T11:15:09;19.50;99.90
38604;DHT22;24924;50.054;8.790;2023-09-19T11:17:38;19.40;99.90
38604;DHT22;24924;50.054;8.790;2023-09-19T11:30:52;21.20;99.90
38604;DHT22;24924;50.054;8.790;2023-09-19T11:33:31;21.20;99.90
38604;DHT22;24924;50.054;8.790;2023-09-19T11:36:15;20.90;99.90
38604;DHT22;24924;50.054;8.790;2023-09-19T11:43:50;20.40;99.90
38604;DHT22;24924;50.054;8.790;2023-09-19T11:46:17;20.50;99.90
38604;DHT22;24924;50.054;8.790;2023-09-19T11:48:48;21.10;99.90
38604;DHT22;24924;50.054;8.790;2023-09-19T11:51:16;21.20;99.90
38604;DHT22;24924;50.054;8.790;2023-09-19T11:53:46;21.00;99.90
38604;DHT22;24924;50.054;8.790;2023-09-19T11:56:16;20.50;99.90
38604;DHT22;24924;50.054;8.790;2023-09-19T11:58:45;20.80;99.90
38604;DHT22;24924;50.054;8.790;2023-09-19T12:01:13;20.80;99.90
38604;DHT22;24924;50.054;8.790;2023-09-19T12:03:42;20.80;99.90
38604;DHT22;24924;50.054;8.790;2023-09-19T12:06:17;20.90;99.90
38604;DHT22;24924;50.054;8.790;2023-09-19T12:08:43;21.20;99.90
38604;DHT22;24924;50.054;8.790;2023-09-19T12:11:15;21.20;99.50
38604;DHT22;24924;50.054;8.790;2023-09-19T12:13:46;21.60;99.30
38604;DHT22;24924;50.054;8.790;2023-09-19T12:16:17;21.90;99.20
38604;DHT22;24924;50.054;8.790;2023-09-19T12:18:44;21.70;99.40
38604;DHT22;24924;50.054;8.790;2023-09-19T12:21:30;21.40;99.50
38604;DHT22;24924;50.054;8.790;2023-09-19T12:24:07;21.90;99.80
38604;DHT22;24924;50.054;8.790;2023-09-19T12:26:41;22.40;98.50
38604;DHT22;24924;50.054;8.790;2023-09-19T12:29:14;22.30;98.60
38604;DHT22;24924;50.054;8.790;2023-09-19T12:31:51;22.10;97.90
38604;DHT22;24924;50.054;8.790;2023-09-19T12:34:26;22.30;98.10
38604;DHT22;24924;50.054;8.790;2023-09-19T12:39:53;22.70;97.50
38604;DHT22;24924;50.054;8.790;2023-09-19T12:42:25;22.50;98.00
38604;DHT22;24924;50.054;8.790;2023-09-19T12:44:58;22.50;97.20
38604;DHT22;24924;50.054;8.790;2023-09-19T12:47:27;22.40;97.40
38604;DHT22;24924;50.054;8.790;2023-09-19T12:50:11;22.70;97.50
38604;DHT22;24924;50.054;8.790;2023-09-19T12:52:56;22.50;97.00
38604;DHT22;24924;50.054;8.790;2023-09-19T12:55:29;22.60;96.90
38604;DHT22;24924;50.054;8.790;2023-09-19T12:58:14;22.20;97.00
38604;DHT22;24924;50.054;8.790;2023-09-19T13:00:45;22.20;97.30
38604;DHT22;24924;50.054;8.790;2023-09-19T13:08:25;22.20;97.00
38604;DHT22;24924;50.054;8.790;2023-09-19T13:11:11;21.80;97.80
38604;DHT22;24924;50.054;8.790;2023-09-19T13:13:44;21.60;98.20
38604;DHT22;24924;50.054;8.790;2023-09-19T13:16:11;21.90;98.00
38604;DHT22;24924;50.054;8.790;2023-09-19T13:18:44;22.20;98.30
38604;DHT22;24924;50.054;8.790;2023-09-19T13:21:12;22.70;97.30
38604;DHT22;24924;50.054;8.790;2023-09-19T13:23:42;22.90;96.00
38604;DHT22;24924;50.054;8.790;2023-09-19T13:26:09;22.80;96.60
38604;DHT22;24924;50.054;8.790;2023-09-19T13:28:37;23.10;96.10
38604;DHT22;24924;50.054;8.790;2023-09-19T13:33:29;23.10;96.20
38604;DHT22;24924;50.054;8.790;2023-09-19T13:35:54;23.30;95.90
38604;DHT22;24924;50.054;8.790;2023-09-19T13:38:22;23.40;95.70
38604;DHT22;24924;50.054;8.790;2023-09-19T13:43:14;23.30;95.70
38604;DHT22;24924;50.054;8.790;2023-09-19T13:45:41;23.30;95.30
38604;DHT22;24924;50.054;8.790;2023-09-19T13:48:09;23.40;95.40
38604;DHT22;24924;50.054;8.790;2023-09-19T13:50:37;23.50;95.40
38604;DHT22;24924;50.054;8.790;2023-09-19T13:53:08;23.10;95.40
38604;DHT22;24924;50.054;8.790;2023-09-19T13:55:33;22.90;95.90
38604;DHT22;24924;50.054;8.790;2023-09-19T13:57:59;22.30;96.30
38604;DHT22;24924;50.054;8.790;2023-09-19T14:00:25;22.10;97.10
38604;DHT22;24924;50.054;8.790;2023-09-19T14:02:51;22.10;97.00
38604;DHT22;24924;50.054;8.790;2023-09-19T14:05:17;22.10;97.00
38604;DHT22;24924;50.054;8.790;2023-09-19T14:07:44;22.10;97.20
38604;DHT22;24924;50.054;8.790;2023-09-19T14:12:37;22.40;96.50
38604;DHT22;24924;50.054;8.790;2023-09-19T14:15:04;22.50;96.80
38604;DHT22;24924;50.054;8.790;2023-09-19T14:17:30;22.70;96.80
38604;DHT22;24924;50.054;8.790;2023-09-19T14:19:56;22.80;96.40
38604;DHT22;24924;50.054;8.790;2023-09-19T14:22:22;23.00;96.70
38604;DHT22;24924;50.054;8.790;2023-09-19T14:27:13;23.60;96.00
38604;DHT22;24924;50.054;8.790;2023-09-19T14:29:40;23.30;95.10
38604;DHT22;24924;50.054;8.790;2023-09-19T14:32:07;23.00;95.40
38604;DHT22;24924;50.054;8.790;2023-09-19T14:34:32;22.70;95.20
38604;DHT22;24924;50.054;8.790;2023-09-19T14:36:58;22.60;95.80
38604;DHT22;24924;50.054;8.790;2023-09-19T14:39:24;22.40;96.00
38604;DHT22;24924;50.054;8.790;2023-09-19T14:41:50;22.30;96.50
38604;DHT22;24924;50.054;8.790;2023-09-19T14:46:43;22.20;96.80
38604;DHT22;24924;50.054;8.790;2023-09-19T14:51:38;22.30;97.00
38604;DHT22;24924;50.054;8.790;2023-09-19T14:54:09;22.60;97.00
38604;DHT22;24924;50.054;8.790;2023-09-19T14:59:01;23.20;96.60
38604;DHT22;24924;50.054;8.790;2023-09-19T15:06:21;23.50;95.70
38604;DHT22;24924;50.054;8.790;2023-09-19T15:08:47;23.60;96.00
38604;DHT22;24924;50.054;8.790;2023-09-19T15:11:14;23.70;96.00
38604;DHT22;24924;50.054;8.790;2023-09-19T15:13:43;24.20;95.60
38604;DHT22;24924;50.054;8.790;2023-09-19T15:16:09;24.30;95.30
38604;DHT22;24924;50.054;8.790;2023-09-19T15:18:40;24.60;95.20
38604;DHT22;24924;50.054;8.790;2023-09-19T15:21:09;24.30;95.50
38604;DHT22;24924;50.054;8.790;2023-09-19T15:26:06;25.00;94.90
38604;DHT22;24924;50.054;8.790;2023-09-19T15:28:33;25.40;94.40
38604;DHT22;24924;50.054;8.790;2023-09-19T15:31:04;25.30;94.70
38604;DHT22;24924;50.054;8.790;2023-09-19T15:33:31;24.70;94.50
38604;DHT22;24924;50.054;8.790;2023-09-19T15:36:07;24.50;95.20
38604;DHT22;24924;50.054;8.790;2023-09-19T15:39:03;24.50;95.20
38604;DHT22;24924;50.054;8.790;2023-09-19T15:41:31;24.60;95.40
38604;DHT22;24924;50.054;8.790;2023-09-19T15:43:58;24.70;94.90
38604;DHT22;24924;50.054;8.790;2023-09-19T15:46:26;24.70;95.20
38604;DHT22;24924;50.054;8.790;2023-09-19T15:48:53;24.70;94.90
38604;DHT22;24924;50.054;8.790;2023-09-19T15:51:19;24.50;95.20
38604;DHT22;24924;50.054;8.790;2023-09-19T15:53:49;24.10;95.70
38604;DHT22;24924;50.054;8.790;2023-09-19T15:56:16;23.40;95.70
38604;DHT22;24924;50.054;8.790;2023-09-19T15:58:47;22.90;96.90
38604;DHT22;24924;50.054;8.790;2023-09-19T16:01:14;22.50;97.50
38604;DHT22;24924;50.054;8.790;2023-09-19T16:03:47;22.30;98.00
38604;DHT22;24924;50.054;8.790;2023-09-19T16:06:16;22.20;98.20
38604;DHT22;24924;50.054;8.790;2023-09-19T16:08:43;22.10;98.60
38604;DHT22;24924;50.054;8.790;2023-09-19T16:11:10;22.00;98.80
38604;DHT22;24924;50.054;8.790;2023-09-19T16:13:37;21.90;98.90
38604;DHT22;24924;50.054;8.790;2023-09-19T16:16:03;21.90;99.50
38604;DHT22;24924;50.054;8.790;2023-09-19T16:18:30;21.60;99.30
38604;DHT22;24924;50.054;8.790;2023-09-19T16:21:02;21.70;99.70
38604;DHT22;24924;50.054;8.790;2023-09-19T16:23:29;21.60;99.90
38604;DHT22;24924;50.054;8.790;2023-09-19T16:26:01;21.70;99.70
38604;DHT22;24924;50.054;8.790;2023-09-19T16:28:30;21.70;99.80
38604;DHT22;24924;50.054;8.790;2023-09-19T16:30:59;21.70;99.90
38604;DHT22;24924;50.054;8.790;2023-09-19T16:33:26;21.70;99.90
38604;DHT22;24924;50.054;8.790;2023-09-19T16:35:52;21.60;99.90
38604;DHT22;24924;50.054;8.790;2023-09-19T16:38:18;21.40;99.90
38604;DHT22;24924;50.054;8.790;2023-09-19T16:40:55;21.40;99.90
38604;DHT22;24924;50.054;8.790;2023-09-19T16:43:25;21.40;99.90
38604;DHT22;24924;50.054;8.790;2023-09-19T16:45:58;21.30;99.90
38604;DHT22;24924;50.054;8.790;2023-09-19T16:48:26;21.20;99.90
38604;DHT22;24924;50.054;8.790;2023-09-19T16:50:52;21.00;99.90
38604;DHT22;24924;50.054;8.790;2023-09-19T16:53:19;21.00;99.90
38604;DHT22;24924;50.054;8.790;2023-09-19T16:55:46;21.00;99.90
38604;DHT22;24924;50.054;8.790;2023-09-19T16:58:13;20.80;99.90
38604;DHT22;24924;50.054;8.790;2023-09-19T17:00:39;20.90;99.90
38604;DHT22;24924;50.054;8.790;2023-09-19T17:03:05;20.80;99.90
38604;DHT22;24924;50.054;8.790;2023-09-19T17:05:32;20.90;99.90
38604;DHT22;24924;50.054;8.790;2023-09-19T17:07:58;20.80;99.90
38604;DHT22;24924;50.054;8.790;2023-09-19T17:10:30;20.80;99.90
38604;DHT22;24924;50.054;8.790;2023-09-19T17:15:24;20.90;99.90
38604;DHT22;24924;50.054;8.790;2023-09-19T17:17:50;20.80;99.90
38604;DHT22;24924;50.054;8.790;2023-09-19T17:20:18;20.70;99.90
38604;DHT22;24924;50.054;8.790;2023-09-19T17:22:44;20.70;99.90
38604;DHT22;24924;50.054;8.790;2023-09-19T17:27:38;20.60;99.90
38604;DHT22;24924;50.054;8.790;2023-09-19T17:30:08;20.70;99.90
38604;DHT22;24924;50.054;8.790;2023-09-19T17:32:36;20.60;99.90
38604;DHT22;24924;50.054;8.790;2023-09-19T17:35:02;20.60;99.90
38604;DHT22;24924;50.054;8.790;2023-09-19T17:39:56;20.40;99.90
38604;DHT22;24924;50.054;8.790;2023-09-19T17:47:16;20.40;99.90
38604;DHT22;24924;50.054;8.790;2023-09-19T17:49:43;20.40;99.90
38604;DHT22;24924;50.054;8.790;2023-09-19T17:52:09;20.60;99.90
38604;DHT22;24924;50.054;8.790;2023-09-19T17:57:03;20.60;99.90
38604;DHT22;24924;50.054;8.790;2023-09-19T18:01:55;21.70;99.90
38604;DHT22;24924;50.054;8.790;2023-09-19T18:06:47;20.40;99.90
38604;DHT22;24924;50.054;8.790;2023-09-19T18:14:09;20.30;99.90
38604;DHT22;24924;50.054;8.790;2023-09-19T18:16:35;20.30;99.90
38604;DHT22;24924;50.054;8.790;2023-09-19T18:23:59;20.00;99.90
38604;DHT22;24924;50.054;8.790;2023-09-19T18:26:30;20.10;99.90
38604;DHT22;24924;50.054;8.790;2023-09-19T18:28:56;19.90;99.90
38604;DHT22;24924;50.054;8.790;2023-09-19T18:31:22;19.90;99.90
38604;DHT22;24924;50.054;8.790;2023-09-19T18:33:49;19.80;99.90
38604;DHT22;24924;50.054;8.790;2023-09-19T18:36:15;19.80;99.90
38604;DHT22;24924;50.054;8.790;2023-09-19T18:38:42;19.70;99.90
38604;DHT22;24924;50.054;8.790;2023-09-19T18:41:12;19.80;99.90
38604;DHT22;24924;50.054;8.790;2023-09-19T18:43:38;19.70;99.90
38604;DHT22;24924;50.054;8.790;2023-09-19T18:46:05;19.70;99.90
38604;DHT22;24924;50.054;8.790;2023-09-19T18:48:31;19.60;99.90
38604;DHT22;24924;50.054;8.790;2023-09-19T18:50:57;19.80;99.90
38604;DHT22;24924;50.054;8.790;2023-09-19T18:53:28;19.60;99.90
38604;DHT22;24924;50.054;8.790;2023-09-19T18:56:08;19.70;99.90
38604;DHT22;24924;50.054;8.790;2023-09-19T18:58:35;19.70;99.90
38604;DHT22;24924;50.054;8.790;2023-09-19T19:01:02;19.60;99.90
38604;DHT22;24924;50.054;8.790;2023-09-19T19:08:25;19.50;99.90
38604;DHT22;24924;50.054;8.790;2023-09-19T19:10:51;19.50;99.90
38604;DHT22;24924;50.054;8.790;2023-09-19T19:13:17;19.60;99.90
38604;DHT22;24924;50.054;8.790;2023-09-19T19:15:43;19.30;99.90
38604;DHT22;24924;50.054;8.790;2023-09-19T19:20:35;19.40;99.90
38604;DHT22;24924;50.054;8.790;2023-09-19T19:23:02;19.40;99.90
38604;DHT22;24924;50.054;8.790;2023-09-19T19:25:28;19.40;99.90
38604;DHT22;24924;50.054;8.790;2023-09-19T19:30:20;19.20;99.90
38604;DHT22;24924;50.054;8.790;2023-09-19T19:32:46;19.10;99.90
38604;DHT22;24924;50.054;8.790;2023-09-19T19:35:12;19.20;99.90
38604;DHT22;24924;50.054;8.790;2023-09-19T19:47:26;18.90;99.90
38604;DHT22;24924;50.054;8.790;2023-09-19T19:54:48;18.80;99.90
38604;DHT22;24924;50.054;8.790;2023-09-19T19:57:14;18.70;99.90
38604;DHT22;24924;50.054;8.790;2023-09-19T19:59:40;18.60;99.90
38604;DHT22;24924;50.054;8.790;2023-09-19T20:04:33;18.50;99.90
38604;DHT22;24924;50.054;8.790;2023-09-19T20:06:58;18.50;99.90
38604;DHT22;24924;50.054;8.790;2023-09-19T20:09:25;18.70;99.90
38604;DHT22;24924;50.054;8.790;2023-09-19T20:19:11;18.70;99.90